San Francisco, California
Current Conditions -  °F | °C
As of 11:56 PM on Sunday 21 Dec 2014 (Local Time) from KSFO Reporting Station
Broken Clouds Broken Clouds  
Wind Chill: 59°   Ceiling: 700
Heat Index: 59°   Visibility: 10mi
Dew Point: 59°   Wind: 7mph
Humidity: 100%   Direction: 260°W
Pressure: 30.28"   Gusts: NA
Location:  37.78°N, 122.42°W
Report Text: KSFO 220756Z 26006KT 10SM FEW005 BKN007 BKN010 15/15 A3028 RMK AO2 SLP255 T01500150 401720144
Loading
Personal Weather Stations






























Interactive Weather Map New forecast layout! Learn more

10-Day Weather Forecast

Advertisements
Track Severe Weather on mobile